sensor_id;sensor_type;location;lat;lon;timestamp;P1;durP1;ratioP1;P2;durP2;ratioP2
71959;SDS011;59832;51.146;14.024;2023-06-26T04:02:31;12.18;;;7.40;;
71959;SDS011;59832;51.146;14.024;2023-06-26T04:04:57;9.87;;;6.90;;
71959;SDS011;59832;51.146;14.024;2023-06-26T04:07:24;10.05;;;6.53;;
71959;SDS011;59832;51.146;14.024;2023-06-26T04:09:51;7.18;;;6.43;;
71959;SDS011;59832;51.146;14.024;2023-06-26T04:12:18;8.00;;;6.60;;
71959;SDS011;59832;51.146;14.024;2023-06-26T04:14:44;7.60;;;6.70;;
71959;SDS011;59832;51.146;14.024;2023-06-26T04:17:11;8.27;;;6.37;;
71959;SDS011;59832;51.146;14.024;2023-06-26T04:19:38;10.80;;;6.70;;
71959;SDS011;59832;51.146;14.024;2023-06-26T04:22:04;6.80;;;6.10;;
71959;SDS011;59832;51.146;14.024;2023-06-26T04:24:31;6.97;;;6.13;;
71959;SDS011;59832;51.146;14.024;2023-06-26T04:26:58;7.30;;;6.60;;
71959;SDS011;59832;51.146;14.024;2023-06-26T04:29:25;9.30;;;5.90;;
71959;SDS011;59832;51.146;14.024;2023-06-26T04:31:53;7.72;;;6.80;;
71959;SDS011;59832;51.146;14.024;2023-06-26T04:34:25;10.45;;;6.30;;
71959;SDS011;59832;51.146;14.024;2023-06-26T04:36:52;8.77;;;6.40;;
71959;SDS011;59832;51.146;14.024;2023-06-26T04:39:18;7.70;;;5.95;;
71959;SDS011;59832;51.146;14.024;2023-06-26T04:41:45;7.57;;;6.43;;
71959;SDS011;59832;51.146;14.024;2023-06-26T04:46:39;7.05;;;6.00;;
71959;SDS011;59832;51.146;14.024;2023-06-26T04:49:10;6.93;;;5.68;;
71959;SDS011;59832;51.146;14.024;2023-06-26T04:51:36;7.05;;;6.20;;
71959;SDS011;59832;51.146;14.024;2023-06-26T04:54:07;5.72;;;5.20;;
71959;SDS011;59832;51.146;14.024;2023-06-26T04:56:34;5.63;;;5.15;;
71959;SDS011;59832;51.146;14.024;2023-06-26T04:59:01;5.40;;;4.90;;
71959;SDS011;59832;51.146;14.024;2023-06-26T05:01:29;5.68;;;4.65;;
71959;SDS011;59832;51.146;14.024;2023-06-26T05:03:56;5.90;;;5.10;;
71959;SDS011;59832;51.146;14.024;2023-06-26T05:06:23;5.68;;;5.00;;
71959;SDS011;59832;51.146;14.024;2023-06-26T05:08:50;6.28;;;4.85;;
71959;SDS011;59832;51.146;14.024;2023-06-26T05:11:16;5.55;;;4.93;;
71959;SDS011;59832;51.146;14.024;2023-06-26T05:13:43;4.78;;;4.38;;
71959;SDS011;59832;51.146;14.024;2023-06-26T05:16:10;5.63;;;4.70;;
71959;SDS011;59832;51.146;14.024;2023-06-26T05:18:36;5.95;;;4.60;;
71959;SDS011;59832;51.146;14.024;2023-06-26T05:21:03;4.88;;;4.47;;
71959;SDS011;59832;51.146;14.024;2023-06-26T05:23:30;4.85;;;4.35;;
71959;SDS011;59832;51.146;14.024;2023-06-26T05:25:58;4.88;;;4.38;;
71959;SDS011;59832;51.146;14.024;2023-06-26T05:28:27;4.70;;;4.30;;
71959;SDS011;59832;51.146;14.024;2023-06-26T05:30:54;4.90;;;4.50;;
71959;SDS011;59832;51.146;14.024;2023-06-26T05:33:21;6.45;;;4.32;;
71959;SDS011;59832;51.146;14.024;2023-06-26T05:35:53;4.55;;;4.20;;
71959;SDS011;59832;51.146;14.024;2023-06-26T05:38:20;5.75;;;4.07;;
71959;SDS011;59832;51.146;14.024;2023-06-26T05:40:47;4.43;;;3.97;;
71959;SDS011;59832;51.146;14.024;2023-06-26T05:43:14;4.65;;;3.92;;
71959;SDS011;59832;51.146;14.024;2023-06-26T05:45:41;6.70;;;4.13;;
71959;SDS011;59832;51.146;14.024;2023-06-26T05:48:07;4.25;;;3.85;;
71959;SDS011;59832;51.146;14.024;2023-06-26T05:50:34;4.90;;;4.40;;
71959;SDS011;59832;51.146;14.024;2023-06-26T05:53:02;4.40;;;4.03;;
71959;SDS011;59832;51.146;14.024;2023-06-26T05:57:56;4.53;;;4.20;;
71959;SDS011;59832;51.146;14.024;2023-06-26T06:00:25;4.28;;;3.88;;
71959;SDS011;59832;51.146;14.024;2023-06-26T06:02:52;4.68;;;4.28;;
71959;SDS011;59832;51.146;14.024;2023-06-26T06:05:21;4.32;;;4.03;;
71959;SDS011;59832;51.146;14.024;2023-06-26T06:07:48;4.43;;;4.13;;
71959;SDS011;59832;51.146;14.024;2023-06-26T06:10:15;4.20;;;3.80;;
71959;SDS011;59832;51.146;14.024;2023-06-26T06:12:42;4.15;;;3.85;;
71959;SDS011;59832;51.146;14.024;2023-06-26T06:15:08;4.40;;;3.97;;
71959;SDS011;59832;51.146;14.024;2023-06-26T06:17:35;4.22;;;3.72;;
71959;SDS011;59832;51.146;14.024;2023-06-26T06:20:02;4.30;;;3.90;;
71959;SDS011;59832;51.146;14.024;2023-06-26T06:22:29;4.00;;;3.70;;
71959;SDS011;59832;51.146;14.024;2023-06-26T06:24:56;4.40;;;4.10;;
71959;SDS011;59832;51.146;14.024;2023-06-26T06:27:22;3.95;;;3.65;;
71959;SDS011;59832;51.146;14.024;2023-06-26T06:29:49;7.90;;;4.10;;
71959;SDS011;59832;51.146;14.024;2023-06-26T06:32:15;4.00;;;3.70;;
71959;SDS011;59832;51.146;14.024;2023-06-26T06:34:42;3.75;;;3.45;;
71959;SDS011;59832;51.146;14.024;2023-06-26T06:37:09;5.30;;;3.75;;
71959;SDS011;59832;51.146;14.024;2023-06-26T06:39:35;4.97;;;3.60;;
71959;SDS011;59832;51.146;14.024;2023-06-26T06:42:02;6.45;;;3.90;;
71959;SDS011;59832;51.146;14.024;2023-06-26T06:44:28;4.80;;;3.90;;
71959;SDS011;59832;51.146;14.024;2023-06-26T06:46:56;4.03;;;3.72;;
71959;SDS011;59832;51.146;14.024;2023-06-26T06:49:23;4.00;;;3.70;;
71959;SDS011;59832;51.146;14.024;2023-06-26T06:51:49;4.05;;;3.75;;
71959;SDS011;59832;51.146;14.024;2023-06-26T06:54:16;5.65;;;4.22;;
71959;SDS011;59832;51.146;14.024;2023-06-26T06:56:43;3.53;;;3.33;;
71959;SDS011;59832;51.146;14.024;2023-06-26T06:59:09;3.83;;;3.53;;
71959;SDS011;59832;51.146;14.024;2023-06-26T07:01:36;4.47;;;4.10;;
71959;SDS011;59832;51.146;14.024;2023-06-26T07:04:02;3.72;;;3.42;;
71959;SDS011;59832;51.146;14.024;2023-06-26T07:06:30;4.07;;;3.78;;
71959;SDS011;59832;51.146;14.024;2023-06-26T07:08:57;4.05;;;3.75;;
71959;SDS011;59832;51.146;14.024;2023-06-26T07:11:23;3.88;;;3.58;;
71959;SDS011;59832;51.146;14.024;2023-06-26T07:13:50;4.28;;;3.88;;
71959;SDS011;59832;51.146;14.024;2023-06-26T07:16:16;4.40;;;4.10;;
71959;SDS011;59832;51.146;14.024;2023-06-26T07:18:43;4.22;;;3.83;;
71959;SDS011;59832;51.146;14.024;2023-06-26T07:21:10;4.25;;;3.88;;
71959;SDS011;59832;51.146;14.024;2023-06-26T07:23:36;4.53;;;4.13;;
71959;SDS011;59832;51.146;14.024;2023-06-26T07:26:03;3.80;;;3.58;;
71959;SDS011;59832;51.146;14.024;2023-06-26T07:28:29;4.50;;;4.10;;
71959;SDS011;59832;51.146;14.024;2023-06-26T07:30:56;4.10;;;3.80;;
71959;SDS011;59832;51.146;14.024;2023-06-26T07:33:22;4.28;;;3.97;;
71959;SDS011;59832;51.146;14.024;2023-06-26T07:35:48;4.63;;;4.05;;
71959;SDS011;59832;51.146;14.024;2023-06-26T07:38:15;4.28;;;3.88;;
71959;SDS011;59832;51.146;14.024;2023-06-26T07:40:41;3.95;;;3.65;;
71959;SDS011;59832;51.146;14.024;2023-06-26T07:43:08;4.25;;;3.85;;
71959;SDS011;59832;51.146;14.024;2023-06-26T07:45:34;4.50;;;4.20;;
71959;SDS011;59832;51.146;14.024;2023-06-26T07:48:01;4.38;;;3.85;;
71959;SDS011;59832;51.146;14.024;2023-06-26T07:50:28;4.05;;;3.70;;
71959;SDS011;59832;51.146;14.024;2023-06-26T07:52:54;4.82;;;3.83;;
71959;SDS011;59832;51.146;14.024;2023-06-26T07:55:22;4.15;;;3.85;;
71959;SDS011;59832;51.146;14.024;2023-06-26T07:57:48;3.95;;;3.65;;
71959;SDS011;59832;51.146;14.024;2023-06-26T08:00:16;4.22;;;3.83;;
71959;SDS011;59832;51.146;14.024;2023-06-26T08:02:43;4.28;;;3.88;;
71959;SDS011;59832;51.146;14.024;2023-06-26T08:05:09;4.50;;;4.10;;
71959;SDS011;59832;51.146;14.024;2023-06-26T08:07:36;5.63;;;3.67;;
71959;SDS011;59832;51.146;14.024;2023-06-26T08:10:03;5.65;;;3.95;;
71959;SDS011;59832;51.146;14.024;2023-06-26T08:17:22;4.32;;;3.92;;
71959;SDS011;59832;51.146;14.024;2023-06-26T08:19:49;4.50;;;4.10;;
71959;SDS011;59832;51.146;14.024;2023-06-26T08:22:15;3.40;;;3.20;;
71959;SDS011;59832;51.146;14.024;2023-06-26T08:24:42;5.45;;;3.80;;
71959;SDS011;59832;51.146;14.024;2023-06-26T08:27:08;3.90;;;3.60;;
71959;SDS011;59832;51.146;14.024;2023-06-26T08:29:35;4.03;;;3.60;;
71959;SDS011;59832;51.146;14.024;2023-06-26T08:32:01;4.30;;;3.60;;
71959;SDS011;59832;51.146;14.024;2023-06-26T08:34:28;4.25;;;3.63;;
71959;SDS011;59832;51.146;14.024;2023-06-26T08:36:55;4.10;;;3.80;;
71959;SDS011;59832;51.146;14.024;2023-06-26T08:39:21;3.85;;;3.55;;
71959;SDS011;59832;51.146;14.024;2023-06-26T08:41:48;3.90;;;3.60;;
71959;SDS011;59832;51.146;14.024;2023-06-26T08:44:14;3.95;;;3.65;;
71959;SDS011;59832;51.146;14.024;2023-06-26T08:46:41;3.80;;;3.50;;
71959;SDS011;59832;51.146;14.024;2023-06-26T08:49:20;3.80;;;3.50;;
71959;SDS011;59832;51.146;14.024;2023-06-26T08:51:52;3.90;;;3.60;;
71959;SDS011;59832;51.146;14.024;2023-06-26T08:54:31;3.70;;;3.50;;
71959;SDS011;59832;51.146;14.024;2023-06-26T08:57:06;3.80;;;3.50;;
71959;SDS011;59832;51.146;14.024;2023-06-26T08:59:33;6.45;;;3.75;;
71959;SDS011;59832;51.146;14.024;2023-06-26T09:02:00;3.85;;;3.58;;
71959;SDS011;59832;51.146;14.024;2023-06-26T09:04:27;3.70;;;3.40;;
71959;SDS011;59832;51.146;14.024;2023-06-26T09:06:54;3.83;;;3.63;;
71959;SDS011;59832;51.146;14.024;2023-06-26T09:11:47;4.10;;;3.80;;
71959;SDS011;59832;51.146;14.024;2023-06-26T09:14:13;3.72;;;3.50;;
71959;SDS011;59832;51.146;14.024;2023-06-26T09:16:41;4.20;;;3.90;;
71959;SDS011;59832;51.146;14.024;2023-06-26T09:19:09;3.60;;;3.40;;
71959;SDS011;59832;51.146;14.024;2023-06-26T09:21:38;3.88;;;3.58;;
71959;SDS011;59832;51.146;14.024;2023-06-26T09:24:06;3.80;;;3.50;;
71959;SDS011;59832;51.146;14.024;2023-06-26T09:26:37;3.75;;;3.50;;
71959;SDS011;59832;51.146;14.024;2023-06-26T09:29:05;4.20;;;3.80;;
71959;SDS011;59832;51.146;14.024;2023-06-26T09:31:32;3.93;;;3.63;;
71959;SDS011;59832;51.146;14.024;2023-06-26T09:34:07;4.13;;;3.45;;
71959;SDS011;59832;51.146;14.024;2023-06-26T09:36:34;4.13;;;3.83;;
71959;SDS011;59832;51.146;14.024;2023-06-26T09:39:06;3.70;;;3.40;;
71959;SDS011;59832;51.146;14.024;2023-06-26T09:41:40;4.00;;;3.70;;
71959;SDS011;59832;51.146;14.024;2023-06-26T09:44:09;4.47;;;3.95;;
71959;SDS011;59832;51.146;14.024;2023-06-26T09:46:38;3.95;;;3.65;;
71959;SDS011;59832;51.146;14.024;2023-06-26T09:49:09;4.32;;;4.03;;
71959;SDS011;59832;51.146;14.024;2023-06-26T09:51:38;3.95;;;3.70;;
71959;SDS011;59832;51.146;14.024;2023-06-26T09:54:05;4.20;;;3.90;;
71959;SDS011;59832;51.146;14.024;2023-06-26T09:56:33;4.20;;;3.90;;
71959;SDS011;59832;51.146;14.024;2023-06-26T09:59:00;4.50;;;3.70;;
71959;SDS011;59832;51.146;14.024;2023-06-26T10:01:28;4.07;;;3.78;;
71959;SDS011;59832;51.146;14.024;2023-06-26T10:03:56;4.20;;;3.80;;
71959;SDS011;59832;51.146;14.024;2023-06-26T10:06:27;4.18;;;3.88;;
71959;SDS011;59832;51.146;14.024;2023-06-26T10:08:58;4.15;;;3.85;;
71959;SDS011;59832;51.146;14.024;2023-06-26T10:11:28;4.20;;;3.92;;
71959;SDS011;59832;51.146;14.024;2023-06-26T10:14:01;4.20;;;3.90;;
71959;SDS011;59832;51.146;14.024;2023-06-26T10:16:42;4.57;;;4.28;;
71959;SDS011;59832;51.146;14.024;2023-06-26T10:19:10;4.47;;;4.07;;
71959;SDS011;59832;51.146;14.024;2023-06-26T10:21:39;3.85;;;3.63;;
71959;SDS011;59832;51.146;14.024;2023-06-26T10:24:07;4.15;;;3.80;;
71959;SDS011;59832;51.146;14.024;2023-06-26T10:26:38;4.35;;;3.92;;
71959;SDS011;59832;51.146;14.024;2023-06-26T10:29:07;4.57;;;4.28;;
71959;SDS011;59832;51.146;14.024;2023-06-26T10:31:34;3.70;;;3.50;;
71959;SDS011;59832;51.146;14.024;2023-06-26T10:34:02;4.07;;;3.78;;
71959;SDS011;59832;51.146;14.024;2023-06-26T10:36:32;4.50;;;4.20;;
71959;SDS011;59832;51.146;14.024;2023-06-26T10:39:02;4.82;;;3.95;;
71959;SDS011;59832;51.146;14.024;2023-06-26T10:41:36;4.45;;;4.07;;
71959;SDS011;59832;51.146;14.024;2023-06-26T10:44:21;4.50;;;4.10;;
71959;SDS011;59832;51.146;14.024;2023-06-26T10:49:20;4.82;;;3.70;;
71959;SDS011;59832;51.146;14.024;2023-06-26T10:51:50;4.20;;;3.78;;
71959;SDS011;59832;51.146;14.024;2023-06-26T10:54:18;3.95;;;3.70;;
71959;SDS011;59832;51.146;14.024;2023-06-26T10:56:49;4.47;;;4.07;;
71959;SDS011;59832;51.146;14.024;2023-06-26T10:59:18;4.18;;;3.88;;
71959;SDS011;59832;51.146;14.024;2023-06-26T11:01:47;4.18;;;3.88;;
71959;SDS011;59832;51.146;14.024;2023-06-26T11:07:18;4.22;;;3.92;;
71959;SDS011;59832;51.146;14.024;2023-06-26T11:10:20;4.22;;;3.83;;
71959;SDS011;59832;51.146;14.024;2023-06-26T11:12:42;3.67;;;3.47;;
71959;SDS011;59832;51.146;14.024;2023-06-26T11:15:13;3.80;;;3.60;;
71959;SDS011;59832;51.146;14.024;2023-06-26T11:17:41;3.88;;;3.58;;
71959;SDS011;59832;51.146;14.024;2023-06-26T11:20:10;3.83;;;3.60;;
71959;SDS011;59832;51.146;14.024;2023-06-26T11:22:38;4.07;;;3.78;;
71959;SDS011;59832;51.146;14.024;2023-06-26T11:25:07;3.80;;;3.55;;
71959;SDS011;59832;51.146;14.024;2023-06-26T11:30:05;4.05;;;3.75;;
71959;SDS011;59832;51.146;14.024;2023-06-26T11:32:32;4.20;;;3.90;;
71959;SDS011;59832;51.146;14.024;2023-06-26T11:34:59;3.67;;;3.42;;
71959;SDS011;59832;51.146;14.024;2023-06-26T11:37:26;3.70;;;3.50;;
71959;SDS011;59832;51.146;14.024;2023-06-26T11:39:52;3.78;;;3.47;;
71959;SDS011;59832;51.146;14.024;2023-06-26T11:42:19;3.60;;;3.30;;
71959;SDS011;59832;51.146;14.024;2023-06-26T11:44:46;4.20;;;3.53;;
71959;SDS011;59832;51.146;14.024;2023-06-26T11:47:20;3.97;;;3.58;;
71959;SDS011;59832;51.146;14.024;2023-06-26T11:49:48;3.72;;;3.40;;
71959;SDS011;59832;51.146;14.024;2023-06-26T11:52:15;3.75;;;3.47;;
71959;SDS011;59832;51.146;14.024;2023-06-26T11:54:42;3.85;;;3.50;;
71959;SDS011;59832;51.146;14.024;2023-06-26T11:57:13;4.90;;;3.53;;
71959;SDS011;59832;51.146;14.024;2023-06-26T11:59:40;4.60;;;3.90;;
71959;SDS011;59832;51.146;14.024;2023-06-26T12:02:08;4.60;;;4.20;;
71959;SDS011;59832;51.146;14.024;2023-06-26T12:04:41;3.75;;;3.45;;
71959;SDS011;59832;51.146;14.024;2023-06-26T12:07:09;3.97;;;3.55;;
71959;SDS011;59832;51.146;14.024;2023-06-26T12:09:40;3.80;;;3.50;;
71959;SDS011;59832;51.146;14.024;2023-06-26T12:12:08;3.80;;;3.50;;
71959;SDS011;59832;51.146;14.024;2023-06-26T12:14:36;3.72;;;3.42;;
71959;SDS011;59832;51.146;14.024;2023-06-26T12:17:04;3.92;;;3.63;;
71959;SDS011;59832;51.146;14.024;2023-06-26T12:19:36;3.63;;;3.42;;
71959;SDS011;59832;51.146;14.024;2023-06-26T12:22:07;3.80;;;3.50;;
71959;SDS011;59832;51.146;14.024;2023-06-26T12:24:38;4.22;;;3.65;;
71959;SDS011;59832;51.146;14.024;2023-06-26T12:27:09;4.03;;;3.63;;
71959;SDS011;59832;51.146;14.024;2023-06-26T12:29:38;3.75;;;3.50;;
71959;SDS011;59832;51.146;14.024;2023-06-26T12:32:09;3.83;;;3.53;;
71959;SDS011;59832;51.146;14.024;2023-06-26T12:34:37;5.68;;;3.30;;
71959;SDS011;59832;51.146;14.024;2023-06-26T12:37:05;3.78;;;3.25;;
71959;SDS011;59832;51.146;14.024;2023-06-26T12:39:46;4.53;;;3.88;;
71959;SDS011;59832;51.146;14.024;2023-06-26T12:42:17;4.13;;;3.75;;
71959;SDS011;59832;51.146;14.024;2023-06-26T12:44:45;3.90;;;3.60;;
71959;SDS011;59832;51.146;14.024;2023-06-26T12:47:14;3.72;;;3.42;;
71959;SDS011;59832;51.146;14.024;2023-06-26T12:49:42;4.15;;;3.30;;
71959;SDS011;59832;51.146;14.024;2023-06-26T12:52:13;3.60;;;3.35;;
71959;SDS011;59832;51.146;14.024;2023-06-26T12:54:40;3.67;;;3.35;;
71959;SDS011;59832;51.146;14.024;2023-06-26T12:57:09;3.35;;;3.15;;
71959;SDS011;59832;51.146;14.024;2023-06-26T12:59:37;3.33;;;3.08;;
71959;SDS011;59832;51.146;14.024;2023-06-26T13:02:04;3.67;;;3.38;;
71959;SDS011;59832;51.146;14.024;2023-06-26T13:04:31;3.35;;;3.15;;
71959;SDS011;59832;51.146;14.024;2023-06-26T13:06:58;5.30;;;3.42;;
71959;SDS011;59832;51.146;14.024;2023-06-26T13:09:25;3.80;;;3.50;;
71959;SDS011;59832;51.146;14.024;2023-06-26T13:11:52;5.60;;;3.20;;
71959;SDS011;59832;51.146;14.024;2023-06-26T13:14:19;3.70;;;3.33;;
71959;SDS011;59832;51.146;14.024;2023-06-26T13:16:46;3.67;;;3.28;;
71959;SDS011;59832;51.146;14.024;2023-06-26T13:19:13;4.00;;;3.60;;
71959;SDS011;59832;51.146;14.024;2023-06-26T13:21:39;3.75;;;3.45;;
71959;SDS011;59832;51.146;14.024;2023-06-26T13:24:06;3.55;;;3.30;;
71959;SDS011;59832;51.146;14.024;2023-06-26T13:29:03;4.38;;;3.40;;
71959;SDS011;59832;51.146;14.024;2023-06-26T13:31:30;3.88;;;3.58;;
71959;SDS011;59832;51.146;14.024;2023-06-26T13:33:58;3.67;;;3.40;;
71959;SDS011;59832;51.146;14.024;2023-06-26T13:36:25;3.30;;;3.00;;
71959;SDS011;59832;51.146;14.024;2023-06-26T13:38:52;3.90;;;3.60;;
71959;SDS011;59832;51.146;14.024;2023-06-26T13:41:22;3.33;;;3.13;;
71959;SDS011;59832;51.146;14.024;2023-06-26T13:43:50;3.33;;;3.13;;
71959;SDS011;59832;51.146;14.024;2023-06-26T13:46:17;3.40;;;3.20;;
71959;SDS011;59832;51.146;14.024;2023-06-26T13:48:44;3.90;;;3.60;;
71959;SDS011;59832;51.146;14.024;2023-06-26T13:51:11;4.00;;;3.70;;
71959;SDS011;59832;51.146;14.024;2023-06-26T13:53:38;3.78;;;3.47;;
71959;SDS011;59832;51.146;14.024;2023-06-26T13:56:05;3.35;;;3.15;;
71959;SDS011;59832;51.146;14.024;2023-06-26T14:01:02;3.72;;;3.42;;
71959;SDS011;59832;51.146;14.024;2023-06-26T14:03:29;4.00;;;3.60;;
71959;SDS011;59832;51.146;14.024;2023-06-26T14:08:22;3.65;;;3.40;;
71959;SDS011;59832;51.146;14.024;2023-06-26T14:10:48;3.38;;;3.17;;
71959;SDS011;59832;51.146;14.024;2023-06-26T14:13:15;4.00;;;3.70;;
71959;SDS011;59832;51.146;14.024;2023-06-26T14:15:42;4.18;;;3.80;;
71959;SDS011;59832;51.146;14.024;2023-06-26T14:18:09;3.58;;;3.28;;
71959;SDS011;59832;51.146;14.024;2023-06-26T14:23:03;3.90;;;3.60;;
71959;SDS011;59832;51.146;14.024;2023-06-26T14:27:56;3.55;;;3.30;;
71959;SDS011;59832;51.146;14.024;2023-06-26T14:30:24;3.55;;;3.35;;
71959;SDS011;59832;51.146;14.024;2023-06-26T14:32:50;3.63;;;3.33;;
71959;SDS011;59832;51.146;14.024;2023-06-26T14:37:43;3.60;;;3.40;;
71959;SDS011;59832;51.146;14.024;2023-06-26T14:40:10;4.10;;;3.80;;
71959;SDS011;59832;51.146;14.024;2023-06-26T14:42:38;4.03;;;3.63;;
71959;SDS011;59832;51.146;14.024;2023-06-26T14:45:05;4.10;;;3.80;;
71959;SDS011;59832;51.146;14.024;2023-06-26T14:47:33;4.15;;;3.85;;
71959;SDS011;59832;51.146;14.024;2023-06-26T14:50:00;5.43;;;3.67;;
71959;SDS011;59832;51.146;14.024;2023-06-26T14:52:26;3.88;;;3.58;;
71959;SDS011;59832;51.146;14.024;2023-06-26T14:54:53;4.38;;;4.03;;
71959;SDS011;59832;51.146;14.024;2023-06-26T14:57:19;4.40;;;3.70;;
71959;SDS011;59832;51.146;14.024;2023-06-26T14:59:46;3.60;;;3.38;;
71959;SDS011;59832;51.146;14.024;2023-06-26T15:04:39;5.20;;;4.20;;
71959;SDS011;59832;51.146;14.024;2023-06-26T15:07:05;4.50;;;3.88;;
71959;SDS011;59832;51.146;14.024;2023-06-26T15:09:32;3.92;;;3.53;;
71959;SDS011;59832;51.146;14.024;2023-06-26T15:11:58;4.00;;;3.70;;
71959;SDS011;59832;51.146;14.024;2023-06-26T15:14:25;4.35;;;3.72;;
71959;SDS011;59832;51.146;14.024;2023-06-26T15:19:18;4.32;;;4.03;;
71959;SDS011;59832;51.146;14.024;2023-06-26T15:24:11;4.05;;;3.75;;
71959;SDS011;59832;51.146;14.024;2023-06-26T15:26:38;4.38;;;4.03;;
71959;SDS011;59832;51.146;14.024;2023-06-26T15:29:04;4.28;;;3.97;;
71959;SDS011;59832;51.146;14.024;2023-06-26T15:31:30;3.95;;;3.65;;
71959;SDS011;59832;51.146;14.024;2023-06-26T15:36:24;4.43;;;3.95;;
71959;SDS011;59832;51.146;14.024;2023-06-26T15:38:50;4.18;;;3.88;;
71959;SDS011;59832;51.146;14.024;2023-06-26T15:43:43;3.85;;;3.65;;
71959;SDS011;59832;51.146;14.024;2023-06-26T15:46:11;4.30;;;4.00;;
71959;SDS011;59832;51.146;14.024;2023-06-26T15:48:37;4.55;;;4.13;;
71959;SDS011;59832;51.146;14.024;2023-06-26T15:51:07;4.40;;;4.10;;
71959;SDS011;59832;51.146;14.024;2023-06-26T15:56:03;5.78;;;4.03;;
71959;SDS011;59832;51.146;14.024;2023-06-26T15:58:33;4.70;;;4.15;;
71959;SDS011;59832;51.146;14.024;2023-06-26T16:01:01;4.63;;;4.10;;
71959;SDS011;59832;51.146;14.024;2023-06-26T16:03:29;4.45;;;4.03;;
71959;SDS011;59832;51.146;14.024;2023-06-26T16:05:56;4.38;;;3.90;;
71959;SDS011;59832;51.146;14.024;2023-06-26T16:08:22;4.40;;;4.10;;
71959;SDS011;59832;51.146;14.024;2023-06-26T16:10:49;4.32;;;4.00;;
71959;SDS011;59832;51.146;14.024;2023-06-26T16:15:44;4.80;;;4.40;;
71959;SDS011;59832;51.146;14.024;2023-06-26T16:18:11;4.90;;;4.20;;
71959;SDS011;59832;51.146;14.024;2023-06-26T16:20:38;4.20;;;3.90;;
71959;SDS011;59832;51.146;14.024;2023-06-26T16:23:04;4.72;;;4.40;;
71959;SDS011;59832;51.146;14.024;2023-06-26T16:27:58;4.70;;;4.30;;
71959;SDS011;59832;51.146;14.024;2023-06-26T16:30:24;6.13;;;4.75;;
71959;SDS011;59832;51.146;14.024;2023-06-26T16:32:51;8.52;;;4.47;;
71959;SDS011;59832;51.146;14.024;2023-06-26T16:35:20;13.18;;;4.68;;
71959;SDS011;59832;51.146;14.024;2023-06-26T16:37:46;6.82;;;4.95;;
71959;SDS011;59832;51.146;14.024;2023-06-26T16:40:13;11.95;;;5.18;;
71959;SDS011;59832;51.146;14.024;2023-06-26T16:42:40;9.45;;;5.00;;
71959;SDS011;59832;51.146;14.024;2023-06-26T16:47:34;7.43;;;5.63;;
71959;SDS011;59832;51.146;14.024;2023-06-26T16:50:05;10.05;;;5.82;;
71959;SDS011;59832;51.146;14.024;2023-06-26T16:54:59;11.38;;;6.68;;
71959;SDS011;59832;51.146;14.024;2023-06-26T16:57:25;15.45;;;7.55;;
71959;SDS011;59832;51.146;14.024;2023-06-26T16:59:51;8.25;;;7.55;;
71959;SDS011;59832;51.146;14.024;2023-06-26T17:04:45;11.23;;;8.70;;
71959;SDS011;59832;51.146;14.024;2023-06-26T17:07:12;12.27;;;9.38;;
71959;SDS011;59832;51.146;14.024;2023-06-26T17:09:38;10.63;;;9.45;;
71959;SDS011;59832;51.146;14.024;2023-06-26T17:12:05;12.63;;;10.10;;
71959;SDS011;59832;51.146;14.024;2023-06-26T17:14:32;12.10;;;10.75;;
71959;SDS011;59832;51.146;14.024;2023-06-26T17:16:58;14.27;;;10.23;;
71959;SDS011;59832;51.146;14.024;2023-06-26T17:19:25;12.60;;;10.68;;
71959;SDS011;59832;51.146;14.024;2023-06-26T17:21:51;11.65;;;10.45;;
71959;SDS011;59832;51.146;14.024;2023-06-26T17:24:18;13.40;;;9.88;;
71959;SDS011;59832;51.146;14.024;2023-06-26T17:26:44;11.45;;;10.25;;
71959;SDS011;59832;51.146;14.024;2023-06-26T17:29:11;12.60;;;11.27;;
71959;SDS011;59832;51.146;14.024;2023-06-26T17:31:37;15.63;;;11.13;;
71959;SDS011;59832;51.146;14.024;2023-06-26T17:34:06;13.65;;;11.10;;
71959;SDS011;59832;51.146;14.024;2023-06-26T17:36:33;12.90;;;10.35;;
71959;SDS011;59832;51.146;14.024;2023-06-26T17:38:59;11.80;;;10.43;;
71959;SDS011;59832;51.146;14.024;2023-06-26T17:41:26;12.40;;;10.95;;
71959;SDS011;59832;51.146;14.024;2023-06-26T17:43:53;12.43;;;10.77;;
71959;SDS011;59832;51.146;14.024;2023-06-26T17:46:19;13.52;;;11.55;;
71959;SDS011;59832;51.146;14.024;2023-06-26T17:48:46;17.80;;;11.52;;
71959;SDS011;59832;51.146;14.024;2023-06-26T17:51:13;12.40;;;10.95;;
71959;SDS011;59832;51.146;14.024;2023-06-26T17:53:39;16.25;;;10.25;;
71959;SDS011;59832;51.146;14.024;2023-06-26T17:56:06;10.63;;;9.52;;
71959;SDS011;59832;51.146;14.024;2023-06-26T17:58:32;12.15;;;10.48;;
71959;SDS011;59832;51.146;14.024;2023-06-26T18:00:59;12.00;;;9.38;;
71959;SDS011;59832;51.146;14.024;2023-06-26T18:03:25;11.23;;;9.32;;
71959;SDS011;59832;51.146;14.024;2023-06-26T18:05:52;17.20;;;9.70;;
71959;SDS011;59832;51.146;14.024;2023-06-26T18:08:18;10.23;;;8.73;;
71959;SDS011;59832;51.146;14.024;2023-06-26T18:10:44;11.10;;;8.20;;
71959;SDS011;59832;51.146;14.024;2023-06-26T18:13:11;11.82;;;8.88;;
71959;SDS011;59832;51.146;14.024;2023-06-26T18:15:37;9.32;;;8.50;;
71959;SDS011;59832;51.146;14.024;2023-06-26T18:18:04;10.25;;;8.13;;
71959;SDS011;59832;51.146;14.024;2023-06-26T18:20:31;10.35;;;8.60;;
71959;SDS011;59832;51.146;14.024;2023-06-26T18:22:57;9.38;;;7.57;;
71959;SDS011;59832;51.146;14.024;2023-06-26T18:27:51;11.18;;;8.35;;
71959;SDS011;59832;51.146;14.024;2023-06-26T18:30:17;11.05;;;8.35;;
71959;SDS011;59832;51.146;14.024;2023-06-26T18:32:45;9.18;;;7.18;;
71959;SDS011;59832;51.146;14.024;2023-06-26T18:35:12;8.13;;;7.43;;
71959;SDS011;59832;51.146;14.024;2023-06-26T18:37:38;10.07;;;7.38;;
71959;SDS011;59832;51.146;14.024;2023-06-26T18:40:05;10.43;;;7.57;;
71959;SDS011;59832;51.146;14.024;2023-06-26T18:42:34;10.38;;;7.40;;
71959;SDS011;59832;51.146;14.024;2023-06-26T18:45:01;7.63;;;6.80;;
71959;SDS011;59832;51.146;14.024;2023-06-26T18:47:27;8.07;;;7.38;;
71959;SDS011;59832;51.146;14.024;2023-06-26T18:49:54;7.30;;;6.57;;
71959;SDS011;59832;51.146;14.024;2023-06-26T18:52:20;8.05;;;7.03;;
71959;SDS011;59832;51.146;14.024;2023-06-26T18:54:47;7.50;;;6.80;;
71959;SDS011;59832;51.146;14.024;2023-06-26T18:57:13;7.43;;;6.77;;
71959;SDS011;59832;51.146;14.024;2023-06-26T18:59:40;7.18;;;6.57;;
71959;SDS011;59832;51.146;14.024;2023-06-26T19:02:06;7.53;;;6.82;;
71959;SDS011;59832;51.146;14.024;2023-06-26T19:04:33;7.75;;;6.82;;
71959;SDS011;59832;51.146;14.024;2023-06-26T19:07:00;8.45;;;6.80;;
71959;SDS011;59832;51.146;14.024;2023-06-26T19:11:53;8.32;;;7.05;;
71959;SDS011;59832;51.146;14.024;2023-06-26T19:14:20;8.00;;;6.88;;
71959;SDS011;59832;51.146;14.024;2023-06-26T19:16:46;11.13;;;6.93;;
71959;SDS011;59832;51.146;14.024;2023-06-26T19:19:13;7.32;;;6.05;;
71959;SDS011;59832;51.146;14.024;2023-06-26T19:21:39;8.05;;;6.80;;
71959;SDS011;59832;51.146;14.024;2023-06-26T19:24:06;6.65;;;6.05;;
71959;SDS011;59832;51.146;14.024;2023-06-26T19:26:33;7.40;;;6.70;;
71959;SDS011;59832;51.146;14.024;2023-06-26T19:29:01;6.80;;;6.25;;
71959;SDS011;59832;51.146;14.024;2023-06-26T19:31:27;8.68;;;6.30;;
71959;SDS011;59832;51.146;14.024;2023-06-26T19:33:54;10.13;;;6.05;;
71959;SDS011;59832;51.146;14.024;2023-06-26T19:36:20;7.05;;;6.07;;
71959;SDS011;59832;51.146;14.024;2023-06-26T19:38:48;7.45;;;6.13;;
71959;SDS011;59832;51.146;14.024;2023-06-26T19:41:14;6.77;;;6.03;;
71959;SDS011;59832;51.146;14.024;2023-06-26T19:43:41;7.68;;;6.53;;